Time;durP1;ratioP1;P1;durP2;ratioP2;P2;SDS_P1;SDS_P2;PMS_P1;PMS_P2;Temp;Humidity;BMP_temperature;BMP_pressure;BME280_temperature;BME280_humidity;BME280_pressure;Samples;Min_cycle;Max_cycle;Signal;HPM_P1;HPM_P2
2023/03/10 00:02:29;;;;;;;6.83;3.17;;;;;;;8.56;100.00;98330.22;5115155;28;20228;-71
2023/03/10 00:04:55;;;;;;;12.27;3.00;;;;;;;8.62;100.00;98323.41;5115429;28;20552;-72
2023/03/10 00:07:22;;;;;;;8.33;2.77;;;;;;;8.69;100.00;98319.13;5115616;28;20177;-72
2023/03/10 00:09:48;;;;;;;4.10;2.57;;;;;;;8.67;99.56;98313.13;5115000;28;20262;-72
2023/03/10 00:12:15;;;;;;;5.93;3.27;;;;;;;8.71;100.00;98311.78;5114830;28;20205;-71
2023/03/10 00:14:41;;;;;;;6.43;2.60;;;;;;;8.68;100.00;98307.63;5114899;28;20193;-71
2023/03/10 00:17:07;;;;;;;9.10;3.37;;;;;;;8.72;100.00;98295.63;5114846;28;20194;-71
2023/03/10 00:19:34;;;;;;;5.37;4.97;;;;;;;8.76;99.49;98296.16;5115096;28;20551;-71
2023/03/10 00:22:02;;;;;;;3.07;2.90;;;;;;;8.76;99.76;98290.81;5114881;28;20707;-71
2023/03/10 00:24:28;;;;;;;4.40;3.30;;;;;;;8.79;99.73;98297.66;5114615;28;20264;-72
2023/03/10 00:26:55;;;;;;;3.47;3.17;;;;;;;8.85;99.65;98284.53;5115212;28;20262;-72
2023/03/10 00:29:21;;;;;;;3.70;2.67;;;;;;;8.85;99.38;98276.50;5114931;28;20263;-72
2023/03/10 00:31:47;;;;;;;5.03;3.37;;;;;;;8.88;99.33;98270.00;5114507;28;20295;-72
2023/03/10 00:34:14;;;;;;;4.23;3.23;;;;;;;8.89;98.95;98261.84;5096299;28;20212;-72
2023/03/10 00:36:40;;;;;;;4.73;3.10;;;;;;;8.90;99.36;98263.50;5096294;28;20278;-72
2023/03/10 00:39:09;;;;;;;5.33;2.83;;;;;;;8.89;99.25;98259.19;5096255;28;20651;-72
2023/03/10 00:41:40;;;;;;;7.37;4.37;;;;;;;8.92;99.13;98258.84;5114333;28;20297;-72
2023/03/10 00:44:08;;;;;;;9.37;5.00;;;;;;;8.99;98.76;98253.72;5114382;28;20220;-72
2023/03/10 00:46:37;;;;;;;5.43;4.47;;;;;;;9.02;98.27;98260.56;5114361;28;20185;-72
2023/03/10 00:49:06;;;;;;;3.23;2.93;;;;;;;9.08;98.27;98259.94;5114296;28;20216;-72
2023/03/10 00:51:33;;;;;;;4.80;3.07;;;;;;;9.19;97.60;98256.94;5095959;28;20307;-71
2023/03/10 00:54:01;;;;;;;3.90;3.57;;;;;;;9.18;97.50;98247.28;5114136;28;20207;-72
2023/03/10 00:56:28;;;;;;;3.23;3.13;;;;;;;9.27;97.04;98261.50;5096001;28;20215;-72
2023/03/10 00:58:57;;;;;;;3.50;3.17;;;;;;;9.26;96.65;98252.63;5114620;28;20185;-72
2023/03/10 01:01:29;;;;;;;3.10;3.10;;;;;;;9.30;96.37;98258.47;5095806;28;20758;-71
2023/03/10 01:03:59;;;;;;;7.10;2.60;;;;;;;9.34;95.60;98249.16;5114065;28;20169;-72
2023/03/10 01:06:26;;;;;;;5.27;3.83;;;;;;;9.36;95.66;98245.31;5114028;28;20565;-72
2023/03/10 01:08:53;;;;;;;5.83;2.73;;;;;;;9.37;95.29;98251.50;5114242;28;20200;-72
2023/03/10 01:11:22;;;;;;;2.83;2.70;;;;;;;9.45;94.53;98259.50;5113714;28;20576;-72
2023/03/10 01:13:50;;;;;;;2.50;2.40;;;;;;;9.55;94.12;98272.72;5113795;28;20201;-72
2023/03/10 01:16:17;;;;;;;2.93;2.73;;;;;;;9.54;93.28;98269.22;5113903;28;20185;-72
2023/03/10 01:18:43;;;;;;;2.87;2.77;;;;;;;9.59;92.10;98274.91;5114152;28;20188;-72
2023/03/10 01:21:17;;;;;;;2.37;2.23;;;;;;;9.57;91.72;98286.75;5113758;28;20185;-71
2023/03/10 01:23:43;;;;;;;2.23;1.97;;;;;;;9.49;91.22;98289.41;5095509;28;20272;-72
2023/03/10 01:26:10;;;;;;;2.20;2.17;;;;;;;9.49;90.93;98300.94;5113765;28;20260;-72
2023/03/10 01:28:37;;;;;;;3.10;3.00;;;;;;;9.42;91.60;98299.91;5114026;28;20612;-72
2023/03/10 01:31:06;;;;;;;2.80;2.60;;;;;;;9.37;91.93;98300.41;5113674;28;20224;-71
2023/03/10 01:33:34;;;;;;;2.83;2.77;;;;;;;9.34;92.21;98310.59;5113608;28;20575;-72
2023/03/10 01:36:06;;;;;;;2.30;2.30;;;;;;;9.27;92.33;98306.91;5113672;28;20557;-72
2023/03/10 01:38:33;;;;;;;3.20;3.20;;;;;;;9.22;92.54;98315.38;5113971;28;20165;-72
2023/03/10 01:40:59;;;;;;;2.97;2.97;;;;;;;9.22;92.71;98317.19;5114109;28;20188;-71
2023/03/10 01:43:33;;;;;;;3.67;3.67;;;;;;;9.16;93.30;98316.03;5113843;28;20185;-72
2023/03/10 01:46:00;;;;;;;4.17;4.07;;;;;;;9.13;93.62;98309.16;5095404;28;20192;-72
2023/03/10 01:48:34;;;;;;;4.43;4.33;;;;;;;9.10;93.38;98306.00;5095618;28;20238;-72
2023/03/10 01:51:02;;;;;;;5.17;4.87;;;;;;;9.09;93.78;98304.31;5095253;28;20220;-71
2023/03/10 01:53:29;;;;;;;5.90;5.70;;;;;;;9.05;93.79;98318.97;5095224;28;20205;-71
2023/03/10 01:56:01;;;;;;;5.63;5.23;;;;;;;9.06;93.71;98309.97;5113779;28;20203;-71
2023/03/10 01:58:36;;;;;;;5.83;4.97;;;;;;;9.03;94.17;98315.66;5095518;28;20281;-71
2023/03/10 02:01:05;;;;;;;5.40;5.30;;;;;;;9.01;94.02;98314.97;5113635;28;20607;-71
2023/03/10 02:03:39;;;;;;;6.07;5.83;;;;;;;8.99;94.15;98308.94;5095180;28;20548;-71
2023/03/10 02:06:13;;;;;;;7.13;6.70;;;;;;;8.96;94.14;98320.78;5078461;28;20193;-71
2023/03/10 02:08:44;;;;;;;7.50;7.00;;;;;;;8.96;94.51;98318.13;5113681;28;20248;-71
2023/03/10 02:11:13;;;;;;;6.07;5.60;;;;;;;8.90;94.23;98308.91;5095086;28;20606;-71
2023/03/10 02:13:41;;;;;;;4.10;4.00;;;;;;;8.91;94.26;98307.91;5095061;28;20201;-71
2023/03/10 02:16:07;;;;;;;3.10;3.10;;;;;;;8.86;94.17;98307.56;5113578;28;20544;-71
2023/03/10 02:18:34;;;;;;;2.10;2.10;;;;;;;8.87;94.21;98311.06;5095021;28;20192;-71
2023/03/10 02:21:12;;;;;;;1.87;1.87;;;;;;;8.88;93.82;98302.91;5113127;28;20192;-71
2023/03/10 02:23:59;;;;;;;2.07;2.07;;;;;;;8.83;93.97;98299.03;5116567;28;20555;-71
2023/03/10 02:26:54;;;;;;;2.73;2.73;;;;;;;8.84;93.97;98306.03;5098817;28;20538;-73
2023/03/10 02:29:35;;;;;;;3.17;2.97;;;;;;;8.83;94.09;98299.84;5098774;28;20185;-72
2023/03/10 02:32:18;;;;;;;3.23;3.23;;;;;;;8.84;94.13;98293.53;5098638;28;20213;-71
2023/03/10 02:34:44;;;;;;;5.87;3.50;;;;;;;8.78;94.47;98306.66;5116841;28;20218;-71
2023/03/10 02:37:18;;;;;;;3.80;3.70;;;;;;;8.79;94.53;98303.00;5098558;28;20224;-71
2023/03/10 02:39:45;;;;;;;4.80;4.67;;;;;;;8.78;94.64;98296.81;5098620;28;20229;-71
2023/03/10 02:42:12;;;;;;;4.37;4.20;;;;;;;8.81;95.40;98293.00;5098477;28;20217;-72
2023/03/10 02:44:38;;;;;;;6.20;4.57;;;;;;;8.77;95.46;98292.50;5099619;28;20284;-72
2023/03/10 02:47:05;;;;;;;5.10;4.50;;;;;;;8.80;95.34;98281.50;5098459;28;20257;-72
2023/03/10 02:49:34;;;;;;;7.27;6.93;;;;;;;8.80;95.47;98292.16;5098412;28;20193;-72
2023/03/10 02:52:06;;;;;;;7.47;7.20;;;;;;;8.84;96.00;98290.88;5081472;28;20827;-72
2023/03/10 02:54:32;;;;;;;7.70;7.30;;;;;;;8.83;96.17;98294.50;5098236;28;20569;-72
2023/03/10 02:56:59;;;;;;;6.90;6.20;;;;;;;8.87;96.12;98295.03;5099139;28;20189;-72
2023/03/10 02:59:25;;;;;;;6.03;5.83;;;;;;;8.84;96.16;98293.53;5098741;28;20193;-72
2023/03/10 03:01:52;;;;;;;5.30;5.10;;;;;;;8.83;96.36;98293.69;5098716;28;20243;-72
2023/03/10 03:04:19;;;;;;;4.40;4.10;;;;;;;8.83;96.70;98283.00;5098653;28;20209;-72
2023/03/10 03:06:45;;;;;;;4.57;4.47;;;;;;;8.78;96.34;98288.81;5098024;28;20602;-72
2023/03/10 03:09:12;;;;;;;4.70;4.50;;;;;;;8.77;96.88;98289.81;5097996;28;20577;-72
2023/03/10 03:11:39;;;;;;;6.93;6.53;;;;;;;8.81;96.70;98279.66;5098072;28;20204;-71
2023/03/10 03:14:07;;;;;;;8.27;7.87;;;;;;;8.84;97.13;98293.53;5097830;28;20237;-71
2023/03/10 03:16:34;;;;;;;8.87;8.27;;;;;;;8.87;97.39;98287.88;5097836;28;20720;-71
2023/03/10 03:19:04;;;;;;;9.47;8.73;;;;;;;8.99;97.34;98272.41;5097756;28;20189;-72
2023/03/10 03:21:30;;;;;;;8.47;7.87;;;;;;;9.10;96.70;98272.13;5115953;28;20204;-72
2023/03/10 03:23:57;;;;;;;6.77;6.27;;;;;;;9.09;96.09;98273.09;5097611;28;20200;-72
2023/03/10 03:26:25;;;;;;;7.67;7.23;;;;;;;9.12;96.34;98277.28;5097723;28;20181;-72
2023/03/10 03:28:59;;;;;;;8.43;7.70;;;;;;;9.11;95.91;98278.28;5097652;28;20262;-72
2023/03/10 03:31:29;;;;;;;14.93;10.17;;;;;;;9.15;95.76;98267.13;5097580;28;20209;-71
2023/03/10 03:34:09;;;;;;;10.27;9.27;;;;;;;9.19;95.78;98269.47;5097339;28;20236;-71
2023/03/10 03:36:36;;;;;;;9.83;8.37;;;;;;;9.22;95.75;98275.31;5097427;28;20192;-71
2023/03/10 03:39:07;;;;;;;13.50;8.70;;;;;;;9.23;95.58;98276.16;5098260;28;20307;-72
2023/03/10 03:41:35;;;;;;;8.83;8.43;;;;;;;9.21;95.29;98268.28;5097836;28;20679;-71
2023/03/10 03:44:03;;;;;;;9.17;8.37;;;;;;;9.21;95.38;98270.97;5097310;28;20203;-71
2023/03/10 03:46:31;;;;;;;11.93;7.83;;;;;;;9.26;95.06;98273.16;5097226;28;20568;-71
2023/03/10 03:48:58;;;;;;;7.30;6.87;;;;;;;9.25;95.37;98274.16;5098066;28;20202;-71
2023/03/10 03:51:26;;;;;;;7.20;6.63;;;;;;;9.28;94.73;98273.84;5097329;28;20675;-71
2023/03/10 03:53:52;;;;;;;6.97;6.63;;;;;;;9.29;94.65;98268.34;5097156;28;20679;-72
2023/03/10 03:56:20;;;;;;;7.23;6.50;;;;;;;9.25;94.65;98277.66;5097073;28;20246;-72
2023/03/10 03:58:46;;;;;;;9.20;6.90;;;;;;;9.29;94.42;98272.81;5096929;28;20190;-72
2023/03/10 04:01:13;;;;;;;8.67;6.50;;;;;;;9.29;94.57;98267.47;5096981;28;20300;-71
2023/03/10 04:03:45;;;;;;;8.87;6.90;;;;;;;9.29;94.65;98271.00;5096936;28;20188;-71
2023/03/10 04:06:14;;;;;;;6.80;6.37;;;;;;;9.26;94.69;98281.16;5096905;28;20239;-71
2023/03/10 04:08:42;;;;;;;5.77;5.57;;;;;;;9.25;94.77;98271.50;5097590;28;20193;-72
2023/03/10 04:11:08;;;;;;;7.10;6.13;;;;;;;9.23;95.09;98262.81;5097184;28;20197;-71
2023/03/10 04:13:38;;;;;;;7.93;7.17;;;;;;;9.25;95.20;98282.19;5096708;28;20189;-72
2023/03/10 04:16:06;;;;;;;7.70;6.30;;;;;;;9.22;95.54;98279.81;5096714;28;20253;-72
2023/03/10 04:18:35;;;;;;;6.60;5.97;;;;;;;9.20;95.69;98274.66;5096642;28;20239;-72
2023/03/10 04:21:02;;;;;;;13.73;6.77;;;;;;;9.24;95.60;98273.34;5096848;28;20193;-72
2023/03/10 04:23:29;;;;;;;7.77;6.90;;;;;;;9.26;96.16;98265.97;5096583;28;20193;-72
2023/03/10 04:25:56;;;;;;;5.77;5.40;;;;;;;9.27;95.08;98278.34;5096513;28;20197;-73
2023/03/10 04:28:23;;;;;;;5.57;5.07;;;;;;;9.21;95.13;98281.66;5096509;28;20201;-73
2023/03/10 04:30:50;;;;;;;6.90;5.87;;;;;;;9.14;94.98;98278.78;5114933;28;20264;-72
2023/03/10 04:33:20;;;;;;;5.60;5.50;;;;;;;9.03;95.07;98263.09;5096285;28;20185;-72
2023/03/10 04:35:50;;;;;;;7.97;6.83;;;;;;;9.11;95.19;98272.94;5096912;28;20193;-72
2023/03/10 04:38:18;;;;;;;8.73;8.03;;;;;;;9.11;95.21;98267.59;5096265;28;20193;-72
2023/03/10 04:40:52;;;;;;;11.40;7.73;;;;;;;9.10;95.05;98277.47;5096454;28;20193;-72
2023/03/10 04:43:19;;;;;;;7.40;7.00;;;;;;;9.11;94.71;98262.25;5096178;28;20218;-72
2023/03/10 04:45:47;;;;;;;7.93;7.33;;;;;;;9.10;94.92;98255.28;5095505;28;20184;-72
2023/03/10 04:48:14;;;;;;;11.00;7.80;;;;;;;9.16;94.90;98249.25;5096131;28;20284;-72
2023/03/10 04:50:41;;;;;;;9.80;7.50;;;;;;;9.15;94.90;98250.28;5114590;28;20195;-72
2023/03/10 04:53:08;;;;;;;14.03;7.00;;;;;;;9.07;94.87;98253.72;5096171;28;20209;-72
2023/03/10 04:55:35;;;;;;;8.43;6.33;;;;;;;9.06;94.90;98261.91;5095911;28;20687;-72
2023/03/10 04:58:03;;;;;;;4.00;3.80;;;;;;;9.00;95.08;98265.22;5095981;28;20196;-72
2023/03/10 05:00:30;;;;;;;3.90;3.80;;;;;;;9.04;94.99;98258.56;5095929;28;20193;-72
2023/03/10 05:02:57;;;;;;;4.13;3.57;;;;;;;9.01;95.20;98257.06;5095775;28;20312;-72
2023/03/10 05:05:24;;;;;;;3.30;3.07;;;;;;;8.91;95.25;98249.19;5095812;28;20181;-72
2023/03/10 05:07:50;;;;;;;2.90;2.63;;;;;;;8.90;95.29;98246.66;5095866;28;20246;-72
2023/03/10 05:10:18;;;;;;;3.33;2.63;;;;;;;8.85;95.79;98241.81;5096016;28;20189;-72
2023/03/10 05:12:44;;;;;;;6.13;2.20;;;;;;;8.86;95.75;98242.63;5096840;28;20307;-72
2023/03/10 05:15:11;;;;;;;1.93;1.93;;;;;;;8.87;95.33;98250.50;5096180;28;20296;-72
2023/03/10 05:17:37;;;;;;;3.77;2.33;;;;;;;8.89;95.52;98243.16;5095631;28;20192;-72
2023/03/10 05:20:07;;;;;;;1.70;1.60;;;;;;;8.88;95.46;98244.19;5095862;28;20575;-72
2023/03/10 05:22:36;;;;;;;2.40;2.23;;;;;;;8.90;94.96;98233.31;5096069;28;20296;-72
2023/03/10 05:25:04;;;;;;;8.73;2.13;;;;;;;8.79;95.07;98230.94;5095373;28;20220;-72
2023/03/10 05:27:34;;;;;;;5.17;1.90;;;;;;;8.83;95.39;98232.28;5096121;28;20290;-72
2023/03/10 05:30:03;;;;;;;9.93;1.70;;;;;;;8.83;95.33;98232.28;5095796;28;20196;-72
2023/03/10 05:32:33;;;;;;;3.07;2.50;;;;;;;8.79;95.27;98233.59;5095611;28;20281;-72
2023/03/10 05:35:00;;;;;;;2.07;2.07;;;;;;;8.82;95.20;98238.66;5095325;28;20204;-72
2023/03/10 05:37:26;;;;;;;2.70;2.70;;;;;;;8.78;95.02;98239.97;5095417;28;20239;-72
2023/03/10 05:39:53;;;;;;;3.97;3.83;;;;;;;8.73;95.21;98233.25;5095299;28;20196;-73
2023/03/10 05:42:21;;;;;;;3.00;2.33;;;;;;;8.82;94.87;98231.47;5095253;28;20208;-72
2023/03/10 05:44:48;;;;;;;5.67;2.00;;;;;;;8.79;95.16;98228.28;5095285;28;20238;-72
2023/03/10 05:47:17;;;;;;;2.67;2.43;;;;;;;8.70;95.11;98227.41;5095305;28;20284;-72
2023/03/10 05:49:45;;;;;;;2.23;2.07;;;;;;;8.66;94.89;98223.38;5095296;28;20183;-72
2023/03/10 05:52:11;;;;;;;4.27;2.37;;;;;;;8.69;94.68;98229.25;5095408;28;20754;-71
2023/03/10 05:54:39;;;;;;;1.70;1.70;;;;;;;8.73;94.47;98222.59;5095194;28;20575;-71
2023/03/10 05:57:05;;;;;;;3.47;1.90;;;;;;;8.69;94.41;98220.41;5097725;28;20276;-71
2023/03/10 05:59:32;;;;;;;2.23;2.13;;;;;;;8.67;94.35;98225.09;5099127;28;20724;-71
2023/03/10 06:01:58;;;;;;;5.40;1.53;;;;;;;8.71;94.21;98221.94;5099051;28;20205;-71
2023/03/10 06:04:27;;;;;;;2.17;2.00;;;;;;;8.79;93.96;98220.25;5117787;28;20256;-72
2023/03/10 06:06:54;;;;;;;3.13;1.93;;;;;;;8.79;93.96;98229.13;5117378;28;20166;-71
2023/03/10 06:09:21;;;;;;;2.40;2.20;;;;;;;8.78;93.47;98224.78;5117617;28;20189;-72
2023/03/10 06:11:47;;;;;;;3.13;2.07;;;;;;;8.75;93.29;98217.09;5117562;28;20209;-72
2023/03/10 06:14:14;;;;;;;3.13;2.07;;;;;;;8.69;93.29;98220.41;5117502;28;20313;-72
2023/03/10 06:16:40;;;;;;;2.57;2.37;;;;;;;8.66;93.18;98221.56;5117800;28;20224;-72
2023/03/10 06:19:06;;;;;;;3.83;2.17;;;;;;;8.67;92.70;98217.06;5117439;28;20169;-73
2023/03/10 06:21:33;;;;;;;3.90;3.57;;;;;;;8.65;92.98;98217.22;5117442;28;20200;-71
2023/03/10 06:23:59;;;;;;;7.83;2.97;;;;;;;8.67;92.59;98222.41;5116984;28;20277;-71
2023/03/10 06:26:25;;;;;;;3.90;2.43;;;;;;;8.67;93.10;98225.91;5117406;28;20173;-71
2023/03/10 06:28:52;;;;;;;3.13;3.00;;;;;;;8.63;92.83;98229.06;5116990;28;20196;-71
2023/03/10 06:31:21;;;;;;;4.60;2.40;;;;;;;8.69;92.92;98231.06;5116937;28;20215;-71
2023/03/10 06:33:48;;;;;;;9.63;3.50;;;;;;;8.70;92.86;98228.25;5117348;28;20239;-71
2023/03/10 06:36:15;;;;;;;4.80;4.43;;;;;;;8.67;92.73;98225.09;5117125;28;20197;-71
2023/03/10 06:38:41;;;;;;;10.20;6.37;;;;;;;8.74;92.57;98239.47;5116754;28;20203;-73
2023/03/10 06:41:08;;;;;;;3.83;3.27;;;;;;;8.76;92.44;98234.78;5117458;28;20185;-72
2023/03/10 06:43:35;;;;;;;3.47;2.53;;;;;;;8.80;92.50;98243.31;5117311;28;20273;-72
2023/03/10 06:46:04;;;;;;;3.33;2.63;;;;;;;8.81;92.18;98240.47;5117218;28;20212;-72
2023/03/10 06:48:31;;;;;;;4.23;2.70;;;;;;;8.85;92.28;98228.47;5116586;28;20197;-72
2023/03/10 06:50:57;;;;;;;6.47;3.07;;;;;;;8.89;92.02;98239.69;5116597;28;20189;-72
2023/03/10 06:53:25;;;;;;;8.10;2.90;;;;;;;8.95;91.93;98233.66;5116558;28;20190;-72
2023/03/10 06:56:10;;;;;;;11.10;2.63;;;;;;;9.02;91.47;98242.72;5116385;28;20778;-72
2023/03/10 06:58:37;;;;;;;4.07;2.50;;;;;;;9.08;91.19;98252.75;5117068;28;20173;-72
2023/03/10 07:01:05;;;;;;;3.13;2.23;;;;;;;9.11;90.89;98247.06;5116332;28;20191;-72
2023/03/10 07:03:33;;;;;;;11.50;2.33;;;;;;;9.16;90.95;98254.59;5116354;28;20193;-72
2023/03/10 07:05:59;;;;;;;5.37;2.47;;;;;;;9.19;90.77;98242.75;5116873;28;20264;-72
2023/03/10 07:08:27;;;;;;;5.10;2.30;;;;;;;9.18;90.68;98249.13;5115555;28;20208;-72
2023/03/10 07:10:54;;;;;;;6.93;2.57;;;;;;;9.16;90.59;98246.59;5116066;28;20656;-71
2023/03/10 07:13:21;;;;;;;2.53;2.43;;;;;;;9.19;90.28;98254.28;5116086;28;20181;-72
2023/03/10 07:15:47;;;;;;;2.10;1.97;;;;;;;9.22;90.72;98251.28;5116302;28;20205;-72
2023/03/10 07:18:14;;;;;;;4.00;2.23;;;;;;;9.18;90.66;98259.78;5116269;28;20195;-72
2023/03/10 07:20:43;;;;;;;4.40;2.70;;;;;;;9.23;90.80;98258.28;5116065;28;20267;-72
2023/03/10 07:23:10;;;;;;;4.70;1.80;;;;;;;9.25;90.48;98256.31;5115814;28;20212;-72
2023/03/10 07:25:38;;;;;;;13.80;2.67;;;;;;;9.29;90.66;98264.81;5115774;28;20193;-73
2023/03/10 07:28:05;;;;;;;5.10;2.43;;;;;;;9.27;90.65;98266.84;5097745;28;20192;-72
2023/03/10 07:30:32;;;;;;;2.03;1.93;;;;;;;9.30;90.94;98270.00;5115885;28;20584;-73
2023/03/10 07:32:59;;;;;;;6.73;2.80;;;;;;;9.28;90.85;98273.84;5115703;28;20209;-72
2023/03/10 07:35:25;;;;;;;5.57;2.50;;;;;;;9.33;90.42;98268.84;5115698;28;20201;-72
2023/03/10 07:37:52;;;;;;;2.90;2.17;;;;;;;9.45;90.54;98277.38;5115660;28;20185;-72
2023/03/10 07:40:23;;;;;;;3.07;2.47;;;;;;;9.48;90.02;98283.25;5115646;28;20191;-72
2023/03/10 07:42:53;;;;;;;3.70;2.50;;;;;;;9.51;90.64;98282.06;5116076;28;20209;-72
2023/03/10 07:45:21;;;;;;;2.17;2.03;;;;;;;9.48;90.25;98280.56;5115482;28;20207;-72
2023/03/10 07:47:49;;;;;;;2.40;2.20;;;;;;;9.49;90.31;98284.06;5115549;28;20594;-72
2023/03/10 07:50:16;;;;;;;2.20;1.90;;;;;;;9.44;90.34;98284.56;5115467;28;20192;-72
2023/03/10 07:52:43;;;;;;;5.87;2.60;;;;;;;9.46;90.39;98287.09;5115433;28;20574;-72
2023/03/10 07:55:09;;;;;;;7.53;2.53;;;;;;;9.37;90.86;98288.88;5115807;28;20213;-72
2023/03/10 07:57:36;;;;;;;1.80;1.70;;;;;;;9.28;91.20;98290.69;5115577;28;20540;-72
2023/03/10 08:00:04;;;;;;;4.27;2.40;;;;;;;9.23;91.57;98289.50;5115532;28;20185;-72
2023/03/10 08:02:37;;;;;;;4.93;2.50;;;;;;;9.23;91.64;98282.31;5098252;28;20296;-72
2023/03/10 08:05:04;;;;;;;2.40;2.27;;;;;;;9.20;92.07;98280.00;5115690;28;20188;-72
2023/03/10 08:07:30;;;;;;;10.80;2.13;;;;;;;9.17;92.12;98283.00;5115390;28;20592;-72
2023/03/10 08:09:57;;;;;;;5.50;2.10;;;;;;;9.11;92.47;98281.78;5115322;28;20185;-72
2023/03/10 08:12:23;;;;;;;3.27;2.60;;;;;;;9.13;92.37;98281.63;5114902;28;20205;-72
2023/03/10 08:14:51;;;;;;;5.60;2.60;;;;;;;9.14;92.82;98285.97;5096843;28;20205;-72
2023/03/10 08:17:18;;;;;;;9.50;2.63;;;;;;;9.18;92.89;98286.50;5114999;28;20216;-72
2023/03/10 08:19:44;;;;;;;3.70;2.50;;;;;;;9.19;92.60;98285.47;5113882;28;20553;-73
2023/03/10 08:22:11;;;;;;;4.43;2.73;;;;;;;9.13;92.60;98290.47;5114917;28;20208;-72
2023/03/10 08:24:37;;;;;;;12.07;2.73;;;;;;;9.16;92.46;98295.50;5114899;28;20552;-72
2023/03/10 08:27:04;;;;;;;3.90;2.00;;;;;;;9.12;92.71;98286.16;5115011;28;20209;-72
2023/03/10 08:29:31;;;;;;;8.77;2.20;;;;;;;9.13;92.63;98290.47;5115007;28;20542;-72
2023/03/10 08:31:57;;;;;;;9.20;2.30;;;;;;;9.16;91.99;98298.16;5114884;28;20743;-72
2023/03/10 08:34:24;;;;;;;5.37;2.43;;;;;;;9.17;92.15;98296.34;5096312;28;20255;-72
2023/03/10 08:36:50;;;;;;;4.93;2.37;;;;;;;9.14;92.24;98300.16;5114590;28;20273;-72
2023/03/10 08:39:17;;;;;;;4.63;2.90;;;;;;;9.13;92.14;98301.16;5114502;28;20182;-72
2023/03/10 08:41:47;;;;;;;2.87;2.23;;;;;;;9.17;92.42;98301.69;5114307;28;20582;-72
2023/03/10 08:44:16;;;;;;;2.87;2.07;;;;;;;9.07;92.58;98304.47;5114987;28;20181;-72
2023/03/10 08:46:45;;;;;;;4.47;2.47;;;;;;;9.10;92.66;98301.50;5114590;28;20228;-72
2023/03/10 08:49:14;;;;;;;7.80;3.67;;;;;;;9.13;92.96;98303.81;5114311;28;20275;-72
2023/03/10 08:51:41;;;;;;;8.50;2.70;;;;;;;9.18;92.92;98307.84;5114783;28;20718;-72
2023/03/10 08:54:07;;;;;;;5.60;2.37;;;;;;;9.13;93.04;98300.31;5114565;28;20187;-72
2023/03/10 08:56:34;;;;;;;7.80;2.60;;;;;;;9.10;93.57;98303.31;5114106;28;20586;-72
2023/03/10 08:59:00;;;;;;;5.73;3.03;;;;;;;9.08;93.67;98300.81;5114429;28;20189;-72
2023/03/10 09:01:30;;;;;;;4.93;2.17;;;;;;;9.11;93.54;98302.31;5114368;28;20211;-72
2023/03/10 09:03:58;;;;;;;7.27;3.03;;;;;;;9.09;93.63;98304.31;5114339;28;20181;-72
2023/03/10 09:06:25;;;;;;;3.83;2.10;;;;;;;9.19;93.25;98309.53;5114262;28;20534;-72
2023/03/10 09:08:51;;;;;;;4.93;2.77;;;;;;;9.19;93.74;98299.66;5114002;28;20184;-72
2023/03/10 09:11:25;;;;;;;5.63;3.13;;;;;;;9.19;93.46;98305.00;5113908;28;20204;-72
2023/03/10 09:13:51;;;;;;;4.20;2.33;;;;;;;9.28;93.78;98303.22;5114522;28;20259;-72
2023/03/10 09:16:18;;;;;;;3.60;3.30;;;;;;;9.43;93.97;98308.75;5113926;28;20573;-73
2023/03/10 09:18:44;;;;;;;5.20;2.83;;;;;;;9.47;93.84;98312.78;5113937;28;20188;-73
2023/03/10 09:21:13;;;;;;;5.83;2.90;;;;;;;9.57;93.69;98313.47;5113788;28;20192;-72
2023/03/10 09:23:42;;;;;;;2.43;2.23;;;;;;;9.56;93.90;98304.63;5113828;28;20177;-72
2023/03/10 09:26:08;;;;;;;3.83;3.40;;;;;;;9.63;94.31;98306.66;5113619;28;20189;-72
2023/03/10 09:28:35;;;;;;;2.80;2.60;;;;;;;9.72;93.92;98316.34;5113924;28;20548;-73
2023/03/10 09:31:06;;;;;;;9.07;3.50;;;;;;;9.86;94.01;98312.19;5113331;28;20189;-71
2023/03/10 09:33:34;;;;;;;5.77;2.97;;;;;;;9.99;93.47;98308.03;5113716;28;20197;-72
2023/03/10 09:36:02;;;;;;;3.53;2.87;;;;;;;9.92;92.97;98315.03;5114118;28;20219;-72
2023/03/10 09:38:34;;;;;;;5.50;2.93;;;;;;;9.97;92.62;98302.00;5114195;28;20692;-72
2023/03/10 09:41:12;;;;;;;4.67;2.87;;;;;;;10.01;92.21;98314.03;5114086;28;20272;-72
2023/03/10 09:43:49;;;;;;;4.57;2.20;;;;;;;9.99;91.88;98308.03;5114220;28;20179;-72
2023/03/10 09:46:29;;;;;;;6.33;2.80;;;;;;;9.96;91.47;98315.53;5114150;28;20199;-72
2023/03/10 09:49:04;;;;;;;5.27;2.83;;;;;;;9.95;91.18;98328.06;5114145;28;20679;-72
2023/03/10 09:51:31;;;;;;;10.80;2.63;;;;;;;9.87;89.54;98327.25;5113488;28;20239;-72
2023/03/10 09:54:05;;;;;;;3.70;2.87;;;;;;;9.88;90.10;98320.88;5113824;28;20191;-72
2023/03/10 09:56:33;;;;;;;6.73;3.67;;;;;;;9.98;90.10;98327.75;5113704;28;20193;-72
2023/03/10 09:59:23;;;;;;;2.43;2.33;;;;;;;10.00;89.63;98330.25;5113746;28;20554;-72
2023/03/10 10:01:52;;;;;;;6.83;2.93;;;;;;;10.08;89.68;98324.06;5113342;28;20300;-72
2023/03/10 10:04:30;;;;;;;11.77;3.57;;;;;;;10.15;89.29;98325.91;5113364;28;20177;-72
2023/03/10 10:06:58;;;;;;;9.23;2.87;;;;;;;10.31;88.31;98326.94;5114046;28;20630;-73
2023/03/10 10:09:40;;;;;;;8.13;4.37;;;;;;;10.35;88.41;98326.44;5113788;28;20193;-73
2023/03/10 10:12:12;;;;;;;4.40;3.50;;;;;;;10.57;87.85;98324.06;5113547;28;20209;-72
2023/03/10 10:14:39;;;;;;;6.47;3.50;;;;;;;10.81;87.58;98324.00;5113527;28;20272;-72
2023/03/10 10:17:55;;;;;;;7.33;3.23;;;;;;;11.08;87.54;98321.91;5113255;28;20177;-72
2023/03/10 10:20:57;;;;;;;5.80;2.80;;;;;;;11.45;86.42;98321.25;5113250;28;20189;-72
2023/03/10 10:23:37;;;;;;;3.67;2.60;;;;;;;11.74;84.79;98324.28;5113631;28;20260;-73
2023/03/10 10:26:10;;;;;;;4.90;2.67;;;;;;;11.79;83.51;98317.38;5094944;28;20287;-73
2023/03/10 10:28:55;;;;;;;5.13;2.73;;;;;;;11.81;82.74;98319.88;5113487;28;20174;-73
2023/03/10 10:31:28;;;;;;;2.70;2.30;;;;;;;11.79;82.11;98316.53;5113137;28;20571;-72
2023/03/10 10:34:18;;;;;;;4.93;2.97;;;;;;;11.69;79.15;98319.47;5095706;28;20256;-72
2023/03/10 10:36:51;;;;;;;3.23;2.70;;;;;;;11.61;79.06;98319.50;5113361;28;20197;-72
2023/03/10 10:39:31;;;;;;;6.30;2.83;;;;;;;11.76;78.71;98325.78;5113656;28;20177;-72
2023/03/10 10:42:23;;;;;;;4.87;2.27;;;;;;;11.82;79.66;98326.91;5112977;28;20209;-72
2023/03/10 10:44:55;;;;;;;5.03;2.20;;;;;;;11.72;77.74;98327.13;5116900;28;20176;-72
2023/03/10 10:47:27;;;;;;;2.83;2.67;;;;;;;11.77;77.03;98327.44;5117027;28;20611;-72
2023/03/10 10:50:07;;;;;;;3.60;2.70;;;;;;;11.94;76.84;98319.31;5117205;28;20219;-72
2023/03/10 10:52:33;;;;;;;2.37;2.27;;;;;;;12.03;77.29;98326.28;5116864;28;20244;-74
2023/03/10 10:55:01;;;;;;;3.60;2.37;;;;;;;12.05;75.39;98325.09;5116665;28;20185;-73
2023/03/10 10:57:31;;;;;;;6.53;2.77;;;;;;;12.19;75.37;98326.19;5116909;28;20613;-73
2023/03/10 11:00:30;;;;;;;6.30;2.77;;;;;;;12.04;74.42;98325.28;5116572;28;20272;-73
2023/03/10 11:02:57;;;;;;;4.10;2.47;;;;;;;11.95;74.13;98329.03;5116424;28;20679;-74
2023/03/10 11:05:32;;;;;;;6.80;2.33;;;;;;;11.78;73.45;98323.75;5116562;28;20185;-73
2023/03/10 11:08:29;;;;;;;7.20;2.43;;;;;;;11.70;74.52;98316.56;5117046;28;20222;-73
2023/03/10 11:11:03;;;;;;;3.73;2.23;;;;;;;11.71;74.16;98317.44;5116714;28;20532;-72
2023/03/10 11:14:06;;;;;;;10.20;4.50;;;;;;;11.77;73.70;98315.88;5097972;28;20575;-73
2023/03/10 11:16:58;;;;;;;7.73;3.47;;;;;;;11.74;74.02;98314.38;5116468;28;20242;-73
2023/03/10 11:19:50;;;;;;;3.20;2.33;;;;;;;11.79;74.60;98314.69;5116355;28;20170;-73
2023/03/10 11:22:38;;;;;;;4.53;2.03;;;;;;;11.77;72.98;98310.50;5115941;28;20201;-72
2023/03/10 11:25:23;;;;;;;15.83;2.10;;;;;;;11.90;73.03;98302.75;5115756;28;20207;-72
2023/03/10 11:28:20;;;;;;;9.57;4.60;;;;;;;12.07;74.57;98304.28;5116473;28;20673;-72
2023/03/10 11:31:12;;;;;;;1.97;1.87;;;;;;;12.20;72.86;98306.38;5116162;28;20170;-72
2023/03/10 11:34:00;;;;;;;4.47;2.70;;;;;;;12.04;71.06;98307.34;5116107;28;20161;-72
2023/03/10 11:36:38;;;;;;;2.47;2.03;;;;;;;12.06;70.21;98307.97;5115712;28;20197;-72
2023/03/10 11:39:30;;;;;;;3.63;2.40;;;;;;;11.91;71.47;98307.94;5115705;28;20181;-73
2023/03/10 11:42:09;;;;;;;2.63;2.33;;;;;;;12.02;71.84;98303.16;5115711;28;20215;-72
2023/03/10 11:45:12;;;;;;;2.47;2.10;;;;;;;12.04;71.86;98298.44;5116177;28;20256;-73
2023/03/10 11:47:57;;;;;;;5.13;4.03;;;;;;;11.98;71.76;98296.50;5115915;28;20169;-73
2023/03/10 11:50:40;;;;;;;4.37;2.33;;;;;;;11.97;71.53;98297.50;5115562;28;20260;-72
2023/03/10 11:53:18;;;;;;;3.20;2.93;;;;;;;11.83;71.89;98286.50;5115960;28;20205;-72
2023/03/10 11:55:47;;;;;;;8.20;2.77;;;;;;;11.75;72.87;98277.69;5115287;28;20684;-72